sensor_id;sensor_type;location;lat;lon;timestamp;pressure;altitude;pressure_sealevel;temperature;humidity
12360;BME280;6244;51.460;7.090;2023-08-08T00:04:32;100526.34;;;13.86;77.91
12360;BME280;6244;51.460;7.090;2023-08-08T00:09:29;100523.28;;;13.79;78.06
12360;BME280;6244;51.460;7.090;2023-08-08T00:14:26;100506.72;;;13.77;78.19
12360;BME280;6244;51.460;7.090;2023-08-08T00:19:23;100505.00;;;13.76;78.39
12360;BME280;6244;51.460;7.090;2023-08-08T00:24:20;100507.75;;;13.75;78.48
12360;BME280;6244;51.460;7.090;2023-08-08T00:29:16;100517.13;;;13.66;78.57
12360;BME280;6244;51.460;7.090;2023-08-08T00:34:13;100512.88;;;13.64;78.42
12360;BME280;6244;51.460;7.090;2023-08-08T00:39:11;100518.25;;;13.62;78.38
12360;BME280;6244;51.460;7.090;2023-08-08T00:44:09;100522.69;;;13.62;78.25
12360;BME280;6244;51.460;7.090;2023-08-08T00:49:06;100513.31;;;13.58;77.99
12360;BME280;6244;51.460;7.090;2023-08-08T00:54:03;100513.63;;;13.53;78.25
12360;BME280;6244;51.460;7.090;2023-08-08T00:59:01;100518.56;;;13.58;78.03
12360;BME280;6244;51.460;7.090;2023-08-08T01:03:58;100510.13;;;13.52;78.08
12360;BME280;6244;51.460;7.090;2023-08-08T01:08:58;100519.28;;;13.47;78.52
12360;BME280;6244;51.460;7.090;2023-08-08T01:13:55;100502.28;;;13.51;78.36
12360;BME280;6244;51.460;7.090;2023-08-08T01:18:54;100505.69;;;13.53;78.10
12360;BME280;6244;51.460;7.090;2023-08-08T01:23:53;100495.59;;;13.60;77.60
12360;BME280;6244;51.460;7.090;2023-08-08T01:28:54;100481.88;;;13.55;77.98
12360;BME280;6244;51.460;7.090;2023-08-08T01:33:50;100496.50;;;13.46;78.35
12360;BME280;6244;51.460;7.090;2023-08-08T01:38:48;100483.72;;;13.40;78.42
12360;BME280;6244;51.460;7.090;2023-08-08T01:43:47;100492.13;;;13.32;78.55
12360;BME280;6244;51.460;7.090;2023-08-08T01:48:46;100481.22;;;13.24;79.19
12360;BME280;6244;51.460;7.090;2023-08-08T01:53:43;100493.81;;;13.33;78.79
12360;BME280;6244;51.460;7.090;2023-08-08T01:58:39;100485.69;;;13.36;78.54
12360;BME280;6244;51.460;7.090;2023-08-08T02:03:36;100480.44;;;13.36;78.42
12360;BME280;6244;51.460;7.090;2023-08-08T02:08:33;100464.47;;;13.25;78.86
12360;BME280;6244;51.460;7.090;2023-08-08T02:13:30;100443.28;;;13.27;79.06
12360;BME280;6244;51.460;7.090;2023-08-08T02:18:27;100446.13;;;13.23;79.14
12360;BME280;6244;51.460;7.090;2023-08-08T02:23:23;100466.84;;;13.15;79.67
12360;BME280;6244;51.460;7.090;2023-08-08T02:28:22;100457.31;;;13.13;79.65
12360;BME280;6244;51.460;7.090;2023-08-08T02:33:19;100460.06;;;13.11;80.05
12360;BME280;6244;51.460;7.090;2023-08-08T02:38:16;100467.22;;;13.09;80.18
12360;BME280;6244;51.460;7.090;2023-08-08T02:43:12;100462.16;;;13.06;80.36
12360;BME280;6244;51.460;7.090;2023-08-08T02:48:10;100451.13;;;13.14;80.27
12360;BME280;6244;51.460;7.090;2023-08-08T02:53:07;100454.53;;;13.16;80.02
12360;BME280;6244;51.460;7.090;2023-08-08T02:58:03;100452.06;;;13.27;79.91
12360;BME280;6244;51.460;7.090;2023-08-08T03:03:00;100450.66;;;13.21;79.80
12360;BME280;6244;51.460;7.090;2023-08-08T03:07:59;100446.13;;;13.23;80.24
12360;BME280;6244;51.460;7.090;2023-08-08T03:12:56;100434.00;;;13.21;80.43
12360;BME280;6244;51.460;7.090;2023-08-08T03:17:52;100435.69;;;13.22;81.27
12360;BME280;6244;51.460;7.090;2023-08-08T03:22:49;100434.25;;;13.04;82.74
12360;BME280;6244;51.460;7.090;2023-08-08T03:27:46;100443.47;;;12.97;83.91
12360;BME280;6244;51.460;7.090;2023-08-08T03:32:43;100450.00;;;12.91;84.61
12360;BME280;6244;51.460;7.090;2023-08-08T03:37:40;100454.41;;;12.76;87.78
12360;BME280;6244;51.460;7.090;2023-08-08T03:42:36;100429.38;;;12.42;91.12
12360;BME280;6244;51.460;7.090;2023-08-08T03:47:34;100424.91;;;12.16;94.39
12360;BME280;6244;51.460;7.090;2023-08-08T03:52:31;100425.16;;;11.97;96.44
12360;BME280;6244;51.460;7.090;2023-08-08T03:57:29;100426.63;;;11.87;98.24
12360;BME280;6244;51.460;7.090;2023-08-08T04:02:26;100423.06;;;11.88;98.98
12360;BME280;6244;51.460;7.090;2023-08-08T04:07:24;100440.91;;;11.83;99.51
12360;BME280;6244;51.460;7.090;2023-08-08T04:12:21;100451.53;;;11.95;99.89
12360;BME280;6244;51.460;7.090;2023-08-08T04:17:17;100449.56;;;11.99;100.00
12360;BME280;6244;51.460;7.090;2023-08-08T04:22:14;100428.06;;;11.92;100.00
12360;BME280;6244;51.460;7.090;2023-08-08T04:27:12;100427.44;;;12.03;99.93
12360;BME280;6244;51.460;7.090;2023-08-08T04:32:09;100426.75;;;11.99;100.00
12360;BME280;6244;51.460;7.090;2023-08-08T04:37:05;100431.66;;;12.05;100.00
12360;BME280;6244;51.460;7.090;2023-08-08T04:42:02;100421.47;;;12.14;99.42
12360;BME280;6244;51.460;7.090;2023-08-08T04:47:00;100432.59;;;12.19;99.79
12360;BME280;6244;51.460;7.090;2023-08-08T04:51:57;100420.72;;;12.26;99.67
12360;BME280;6244;51.460;7.090;2023-08-08T04:56:54;100415.56;;;12.24;99.21
12360;BME280;6244;51.460;7.090;2023-08-08T05:01:50;100403.16;;;12.26;99.07
12360;BME280;6244;51.460;7.090;2023-08-08T05:06:48;100403.44;;;12.36;98.51
12360;BME280;6244;51.460;7.090;2023-08-08T05:11:44;100413.97;;;12.36;98.56
12360;BME280;6244;51.460;7.090;2023-08-08T05:16:41;100410.56;;;12.48;99.25
12360;BME280;6244;51.460;7.090;2023-08-08T05:21:38;100419.22;;;12.50;98.09
12360;BME280;6244;51.460;7.090;2023-08-08T05:26:36;100418.97;;;12.41;99.52
12360;BME280;6244;51.460;7.090;2023-08-08T05:31:32;100417.81;;;12.45;99.48
12360;BME280;6244;51.460;7.090;2023-08-08T05:36:29;100421.09;;;12.48;99.39
12360;BME280;6244;51.460;7.090;2023-08-08T05:41:25;100431.25;;;12.54;99.38
12360;BME280;6244;51.460;7.090;2023-08-08T05:46:23;100419.38;;;12.61;99.33
12360;BME280;6244;51.460;7.090;2023-08-08T05:51:20;100427.84;;;12.67;98.35
12360;BME280;6244;51.460;7.090;2023-08-08T05:56:16;100429.72;;;12.64;99.09
12360;BME280;6244;51.460;7.090;2023-08-08T06:01:13;100433.81;;;12.83;98.38
12360;BME280;6244;51.460;7.090;2023-08-08T06:06:10;100432.13;;;12.82;98.30
12360;BME280;6244;51.460;7.090;2023-08-08T06:11:07;100431.94;;;12.85;98.56
12360;BME280;6244;51.460;7.090;2023-08-08T06:16:04;100439.94;;;12.83;98.67
12360;BME280;6244;51.460;7.090;2023-08-08T06:21:02;100442.81;;;12.93;98.44
12360;BME280;6244;51.460;7.090;2023-08-08T06:26:00;100446.34;;;13.06;97.23
12360;BME280;6244;51.460;7.090;2023-08-08T06:30:57;100439.63;;;13.02;98.34
12360;BME280;6244;51.460;7.090;2023-08-08T06:35:54;100444.25;;;13.11;97.33
12360;BME280;6244;51.460;7.090;2023-08-08T06:40:50;100442.69;;;13.09;96.89
12360;BME280;6244;51.460;7.090;2023-08-08T06:45:48;100453.00;;;13.12;96.56
12360;BME280;6244;51.460;7.090;2023-08-08T06:50:45;100447.91;;;13.23;96.92
12360;BME280;6244;51.460;7.090;2023-08-08T06:55:41;100449.97;;;13.32;96.41
12360;BME280;6244;51.460;7.090;2023-08-08T07:00:38;100446.41;;;13.46;96.53
12360;BME280;6244;51.460;7.090;2023-08-08T07:05:36;100442.34;;;13.55;95.06
12360;BME280;6244;51.460;7.090;2023-08-08T07:10:33;100445.38;;;13.61;94.91
12360;BME280;6244;51.460;7.090;2023-08-08T07:15:30;100419.59;;;13.79;92.42
12360;BME280;6244;51.460;7.090;2023-08-08T07:20:27;100432.34;;;13.98;92.12
12360;BME280;6244;51.460;7.090;2023-08-08T07:25:25;100425.34;;;14.35;89.66
12360;BME280;6244;51.460;7.090;2023-08-08T07:30:22;100426.19;;;14.35;89.43
12360;BME280;6244;51.460;7.090;2023-08-08T07:35:20;100436.53;;;14.38;88.59
12360;BME280;6244;51.460;7.090;2023-08-08T07:40:17;100427.69;;;14.52;88.69
12360;BME280;6244;51.460;7.090;2023-08-08T07:45:15;100422.34;;;14.78;85.58
12360;BME280;6244;51.460;7.090;2023-08-08T07:50:13;100426.94;;;15.11;85.08
12360;BME280;6244;51.460;7.090;2023-08-08T07:55:10;100418.94;;;15.23;82.81
12360;BME280;6244;51.460;7.090;2023-08-08T08:00:07;100410.97;;;15.36;80.00
12360;BME280;6244;51.460;7.090;2023-08-08T08:05:09;100416.06;;;15.50;80.47
12360;BME280;6244;51.460;7.090;2023-08-08T08:10:07;100413.03;;;15.79;78.18
12360;BME280;6244;51.460;7.090;2023-08-08T08:15:06;100407.91;;;15.89;77.46
12360;BME280;6244;51.460;7.090;2023-08-08T08:20:05;100408.63;;;16.13;77.12
12360;BME280;6244;51.460;7.090;2023-08-08T08:25:07;100408.25;;;16.62;74.74
12360;BME280;6244;51.460;7.090;2023-08-08T08:30:05;100406.66;;;17.46;69.88
12360;BME280;6244;51.460;7.090;2023-08-08T08:35:02;100400.53;;;18.18;67.21
12360;BME280;6244;51.460;7.090;2023-08-08T08:39:59;100401.34;;;18.09;66.71
12360;BME280;6244;51.460;7.090;2023-08-08T08:44:58;100409.88;;;18.93;64.60
12360;BME280;6244;51.460;7.090;2023-08-08T08:49:55;100406.69;;;19.38;61.13
12360;BME280;6244;51.460;7.090;2023-08-08T08:54:53;100399.03;;;17.95;65.63
12360;BME280;6244;51.460;7.090;2023-08-08T08:59:49;100404.13;;;17.24;68.93
12360;BME280;6244;51.460;7.090;2023-08-08T09:04:47;100391.41;;;17.39;66.57
12360;BME280;6244;51.460;7.090;2023-08-08T09:09:44;100396.66;;;17.50;66.96
12360;BME280;6244;51.460;7.090;2023-08-08T09:14:41;100395.69;;;18.33;65.74
12360;BME280;6244;51.460;7.090;2023-08-08T09:19:38;100402.13;;;18.70;62.71
12360;BME280;6244;51.460;7.090;2023-08-08T09:24:39;100390.63;;;19.95;58.91
12360;BME280;6244;51.460;7.090;2023-08-08T09:29:36;100388.66;;;18.53;61.05
12360;BME280;6244;51.460;7.090;2023-08-08T09:34:33;100393.19;;;18.71;60.98
12360;BME280;6244;51.460;7.090;2023-08-08T09:39:30;100392.66;;;18.97;58.56
12360;BME280;6244;51.460;7.090;2023-08-08T09:44:28;100385.22;;;18.81;56.64
12360;BME280;6244;51.460;7.090;2023-08-08T09:49:25;100389.06;;;18.98;57.66
12360;BME280;6244;51.460;7.090;2023-08-08T09:54:23;100383.50;;;18.61;58.73
12360;BME280;6244;51.460;7.090;2023-08-08T09:59:20;100386.84;;;18.13;60.68
12360;BME280;6244;51.460;7.090;2023-08-08T10:04:18;100379.09;;;18.90;57.65
12360;BME280;6244;51.460;7.090;2023-08-08T10:09:15;100376.78;;;19.82;57.27
12360;BME280;6244;51.460;7.090;2023-08-08T10:14:12;100352.13;;;19.90;56.85
12360;BME280;6244;51.460;7.090;2023-08-08T10:19:10;100379.13;;;20.32;56.14
12360;BME280;6244;51.460;7.090;2023-08-08T10:24:09;100378.09;;;21.33;53.41
12360;BME280;6244;51.460;7.090;2023-08-08T10:29:06;100395.28;;;20.86;50.95
12360;BME280;6244;51.460;7.090;2023-08-08T10:34:03;100389.31;;;18.95;56.21
12360;BME280;6244;51.460;7.090;2023-08-08T10:39:01;100394.50;;;17.85;61.20
12360;BME280;6244;51.460;7.090;2023-08-08T10:43:58;100388.09;;;17.46;62.54
12360;BME280;6244;51.460;7.090;2023-08-08T10:48:57;100402.69;;;16.88;62.81
12360;BME280;6244;51.460;7.090;2023-08-08T10:53:55;100398.00;;;16.80;63.36
12360;BME280;6244;51.460;7.090;2023-08-08T10:58:51;100405.97;;;16.69;61.90
12360;BME280;6244;51.460;7.090;2023-08-08T11:03:49;100389.22;;;17.12;61.94
12360;BME280;6244;51.460;7.090;2023-08-08T11:08:46;100393.25;;;18.51;58.10
12360;BME280;6244;51.460;7.090;2023-08-08T11:13:42;100382.03;;;19.74;53.87
12360;BME280;6244;51.460;7.090;2023-08-08T11:18:41;100400.19;;;18.72;56.86
12360;BME280;6244;51.460;7.090;2023-08-08T11:23:45;100401.53;;;17.86;60.06
12360;BME280;6244;51.460;7.090;2023-08-08T11:28:49;100402.84;;;17.39;62.16
12360;BME280;6244;51.460;7.090;2023-08-08T11:33:46;100400.59;;;17.02;64.26
12360;BME280;6244;51.460;7.090;2023-08-08T11:38:44;100399.84;;;17.32;63.13
12360;BME280;6244;51.460;7.090;2023-08-08T11:43:41;100391.88;;;18.16;60.03
12360;BME280;6244;51.460;7.090;2023-08-08T11:48:39;100387.38;;;19.35;56.72
12360;BME280;6244;51.460;7.090;2023-08-08T11:53:35;100388.19;;;19.07;56.96
12360;BME280;6244;51.460;7.090;2023-08-08T11:58:35;100391.09;;;18.85;57.99
12360;BME280;6244;51.460;7.090;2023-08-08T12:03:32;100371.66;;;18.34;58.61
12360;BME280;6244;51.460;7.090;2023-08-08T12:08:30;100366.22;;;18.76;61.44
12360;BME280;6244;51.460;7.090;2023-08-08T12:13:26;100364.28;;;19.17;53.88
12360;BME280;6244;51.460;7.090;2023-08-08T12:18:25;100360.34;;;18.92;58.13
12360;BME280;6244;51.460;7.090;2023-08-08T12:23:28;100368.19;;;18.93;56.68
12360;BME280;6244;51.460;7.090;2023-08-08T12:28:25;100354.47;;;19.07;58.89
12360;BME280;6244;51.460;7.090;2023-08-08T12:33:21;100370.28;;;19.48;56.46
12360;BME280;6244;51.460;7.090;2023-08-08T12:38:20;100369.03;;;19.23;57.46
12360;BME280;6244;51.460;7.090;2023-08-08T12:43:16;100359.78;;;18.88;57.23
12360;BME280;6244;51.460;7.090;2023-08-08T12:48:13;100372.50;;;18.75;56.37
12360;BME280;6244;51.460;7.090;2023-08-08T12:53:10;100343.13;;;18.96;57.52
12360;BME280;6244;51.460;7.090;2023-08-08T12:58:08;100361.34;;;18.41;61.31
12360;BME280;6244;51.460;7.090;2023-08-08T13:03:05;100368.44;;;18.71;61.42
12360;BME280;6244;51.460;7.090;2023-08-08T13:08:01;100373.94;;;18.98;60.98
12360;BME280;6244;51.460;7.090;2023-08-08T13:12:58;100370.69;;;18.75;61.58
12360;BME280;6244;51.460;7.090;2023-08-08T13:17:56;100362.34;;;18.49;61.98
12360;BME280;6244;51.460;7.090;2023-08-08T13:22:52;100367.53;;;18.51;62.46
12360;BME280;6244;51.460;7.090;2023-08-08T13:27:49;100369.00;;;18.74;60.27
12360;BME280;6244;51.460;7.090;2023-08-08T13:32:46;100369.16;;;18.83;57.17
12360;BME280;6244;51.460;7.090;2023-08-08T13:37:44;100368.22;;;18.53;57.95
12360;BME280;6244;51.460;7.090;2023-08-08T13:42:44;100364.16;;;18.59;55.40
12360;BME280;6244;51.460;7.090;2023-08-08T13:47:43;100374.06;;;18.47;56.75
12360;BME280;6244;51.460;7.090;2023-08-08T13:52:40;100371.06;;;18.21;58.81
12360;BME280;6244;51.460;7.090;2023-08-08T13:57:38;100370.84;;;18.03;59.56
12360;BME280;6244;51.460;7.090;2023-08-08T14:02:34;100366.94;;;18.07;59.44
12360;BME280;6244;51.460;7.090;2023-08-08T14:07:31;100358.75;;;18.20;56.79
12360;BME280;6244;51.460;7.090;2023-08-08T14:12:27;100360.44;;;18.21;58.08
12360;BME280;6244;51.460;7.090;2023-08-08T14:17:25;100372.41;;;18.06;55.60
12360;BME280;6244;51.460;7.090;2023-08-08T14:22:22;100356.28;;;17.98;56.07
12360;BME280;6244;51.460;7.090;2023-08-08T14:27:18;100365.34;;;18.66;55.58
12360;BME280;6244;51.460;7.090;2023-08-08T14:32:15;100369.84;;;18.75;52.84
12360;BME280;6244;51.460;7.090;2023-08-08T14:37:13;100362.31;;;18.40;53.47
12360;BME280;6244;51.460;7.090;2023-08-08T14:42:10;100384.66;;;18.68;54.38
12360;BME280;6244;51.460;7.090;2023-08-08T14:47:06;100385.78;;;18.65;54.20
12360;BME280;6244;51.460;7.090;2023-08-08T14:52:03;100384.84;;;18.86;53.31
12360;BME280;6244;51.460;7.090;2023-08-08T14:57:01;100390.44;;;19.21;53.72
12360;BME280;6244;51.460;7.090;2023-08-08T15:01:58;100397.28;;;19.33;53.03
12360;BME280;6244;51.460;7.090;2023-08-08T15:06:54;100397.03;;;18.98;51.44
12360;BME280;6244;51.460;7.090;2023-08-08T15:11:51;100400.09;;;19.03;52.79
12360;BME280;6244;51.460;7.090;2023-08-08T15:16:52;100388.19;;;19.07;52.44
12360;BME280;6244;51.460;7.090;2023-08-08T15:21:49;100398.44;;;19.12;51.85
12360;BME280;6244;51.460;7.090;2023-08-08T15:26:46;100389.84;;;19.47;50.58
12360;BME280;6244;51.460;7.090;2023-08-08T15:31:42;100376.00;;;19.43;51.50
12360;BME280;6244;51.460;7.090;2023-08-08T15:36:40;100364.50;;;19.52;50.78
12360;BME280;6244;51.460;7.090;2023-08-08T15:41:37;100366.78;;;19.57;48.18
12360;BME280;6244;51.460;7.090;2023-08-08T15:46:33;100374.63;;;19.29;48.65
12360;BME280;6244;51.460;7.090;2023-08-08T15:51:30;100385.13;;;19.12;48.37
12360;BME280;6244;51.460;7.090;2023-08-08T15:56:28;100375.91;;;19.25;48.47
12360;BME280;6244;51.460;7.090;2023-08-08T16:01:24;100380.66;;;19.12;49.71
12360;BME280;6244;51.460;7.090;2023-08-08T16:06:21;100374.47;;;18.92;49.78
12360;BME280;6244;51.460;7.090;2023-08-08T16:11:18;100395.19;;;18.89;49.83
12360;BME280;6244;51.460;7.090;2023-08-08T16:16:16;100387.63;;;18.74;47.95
12360;BME280;6244;51.460;7.090;2023-08-08T16:21:12;100393.22;;;18.81;48.54
12360;BME280;6244;51.460;7.090;2023-08-08T16:26:09;100389.44;;;18.74;49.18
12360;BME280;6244;51.460;7.090;2023-08-08T16:31:06;100386.41;;;18.58;49.71
12360;BME280;6244;51.460;7.090;2023-08-08T16:36:04;100382.59;;;18.41;50.42
12360;BME280;6244;51.460;7.090;2023-08-08T16:41:01;100389.78;;;18.50;51.13
12360;BME280;6244;51.460;7.090;2023-08-08T16:45:58;100382.88;;;18.88;51.24
12360;BME280;6244;51.460;7.090;2023-08-08T16:50:54;100387.50;;;18.86;51.52
12360;BME280;6244;51.460;7.090;2023-08-08T16:55:52;100382.72;;;18.80;52.57
12360;BME280;6244;51.460;7.090;2023-08-08T17:00:49;100380.47;;;18.75;52.80
12360;BME280;6244;51.460;7.090;2023-08-08T17:05:46;100395.50;;;18.55;52.89
12360;BME280;6244;51.460;7.090;2023-08-08T17:10:43;100387.72;;;18.23;52.68
12360;BME280;6244;51.460;7.090;2023-08-08T17:15:41;100381.91;;;18.08;54.10
12360;BME280;6244;51.460;7.090;2023-08-08T17:20:40;100373.16;;;18.17;54.54
12360;BME280;6244;51.460;7.090;2023-08-08T17:25:36;100378.69;;;18.05;54.39
12360;BME280;6244;51.460;7.090;2023-08-08T17:30:33;100370.53;;;17.97;55.23
12360;BME280;6244;51.460;7.090;2023-08-08T17:35:32;100361.28;;;17.91;54.56
12360;BME280;6244;51.460;7.090;2023-08-08T17:40:29;100365.19;;;17.87;54.97
12360;BME280;6244;51.460;7.090;2023-08-08T17:45:26;100355.75;;;17.73;55.31
12360;BME280;6244;51.460;7.090;2023-08-08T17:50:22;100374.31;;;17.73;56.30
12360;BME280;6244;51.460;7.090;2023-08-08T17:55:20;100370.88;;;17.41;58.55
12360;BME280;6244;51.460;7.090;2023-08-08T18:00:17;100367.94;;;17.23;60.08
12360;BME280;6244;51.460;7.090;2023-08-08T18:05:14;100356.09;;;17.06;61.33
12360;BME280;6244;51.460;7.090;2023-08-08T18:10:11;100359.00;;;17.03;61.34
12360;BME280;6244;51.460;7.090;2023-08-08T18:15:10;100384.00;;;16.89;62.12
12360;BME280;6244;51.460;7.090;2023-08-08T18:20:07;100386.13;;;16.95;62.09
12360;BME280;6244;51.460;7.090;2023-08-08T18:25:05;100386.53;;;16.91;61.92
12360;BME280;6244;51.460;7.090;2023-08-08T18:30:02;100402.91;;;16.85;63.21
12360;BME280;6244;51.460;7.090;2023-08-08T18:35:02;100386.94;;;16.53;66.08
12360;BME280;6244;51.460;7.090;2023-08-08T18:39:58;100384.44;;;16.29;68.38
12360;BME280;6244;51.460;7.090;2023-08-08T18:44:55;100374.81;;;16.05;68.01
12360;BME280;6244;51.460;7.090;2023-08-08T18:49:51;100383.59;;;16.06;68.07
12360;BME280;6244;51.460;7.090;2023-08-08T18:54:49;100372.28;;;16.04;68.71
12360;BME280;6244;51.460;7.090;2023-08-08T18:59:46;100375.31;;;15.88;70.54
12360;BME280;6244;51.460;7.090;2023-08-08T19:04:42;100378.03;;;15.64;72.07
12360;BME280;6244;51.460;7.090;2023-08-08T19:09:39;100388.28;;;15.45;74.65
12360;BME280;6244;51.460;7.090;2023-08-08T19:14:37;100407.81;;;15.31;76.50
12360;BME280;6244;51.460;7.090;2023-08-08T19:19:34;100405.84;;;15.22;77.47
12360;BME280;6244;51.460;7.090;2023-08-08T19:24:30;100405.69;;;15.12;78.23
12360;BME280;6244;51.460;7.090;2023-08-08T19:29:27;100395.69;;;15.05;78.51
12360;BME280;6244;51.460;7.090;2023-08-08T19:34:25;100389.28;;;14.96;79.86
12360;BME280;6244;51.460;7.090;2023-08-08T19:39:22;100392.94;;;15.06;78.96
12360;BME280;6244;51.460;7.090;2023-08-08T19:44:18;100375.44;;;15.16;78.70
12360;BME280;6244;51.460;7.090;2023-08-08T19:49:15;100358.63;;;15.17;78.71
12360;BME280;6244;51.460;7.090;2023-08-08T19:54:13;100367.97;;;15.10;79.28
12360;BME280;6244;51.460;7.090;2023-08-08T19:59:10;100383.38;;;15.16;79.99
12360;BME280;6244;51.460;7.090;2023-08-08T20:04:06;100393.66;;;15.08;80.57
12360;BME280;6244;51.460;7.090;2023-08-08T20:09:03;100398.63;;;14.89;81.82
12360;BME280;6244;51.460;7.090;2023-08-08T20:14:01;100390.41;;;14.81;83.64
12360;BME280;6244;51.460;7.090;2023-08-08T20:18:58;100390.50;;;14.43;86.59
12360;BME280;6244;51.460;7.090;2023-08-08T20:23:54;100391.38;;;14.30;89.27
12360;BME280;6244;51.460;7.090;2023-08-08T20:28:51;100383.06;;;14.11;91.43
12360;BME280;6244;51.460;7.090;2023-08-08T20:33:49;100378.13;;;13.94;94.38
12360;BME280;6244;51.460;7.090;2023-08-08T20:38:47;100372.72;;;13.82;97.21
12360;BME280;6244;51.460;7.090;2023-08-08T20:43:44;100363.75;;;13.85;97.83
12360;BME280;6244;51.460;7.090;2023-08-08T20:48:40;100366.09;;;13.77;99.06
12360;BME280;6244;51.460;7.090;2023-08-08T20:53:39;100361.75;;;13.89;99.46
12360;BME280;6244;51.460;7.090;2023-08-08T20:58:35;100358.50;;;13.72;99.89
12360;BME280;6244;51.460;7.090;2023-08-08T21:03:32;100355.75;;;13.87;100.00
12360;BME280;6244;51.460;7.090;2023-08-08T21:08:28;100353.00;;;13.88;100.00
12360;BME280;6244;51.460;7.090;2023-08-08T21:13:27;100353.09;;;13.74;100.00
12360;BME280;6244;51.460;7.090;2023-08-08T21:18:24;100349.22;;;13.67;100.00
12360;BME280;6244;51.460;7.090;2023-08-08T21:23:20;100335.59;;;13.60;100.00
12360;BME280;6244;51.460;7.090;2023-08-08T21:28:17;100331.06;;;13.62;100.00
12360;BME280;6244;51.460;7.090;2023-08-08T21:33:15;100320.63;;;13.61;100.00
12360;BME280;6244;51.460;7.090;2023-08-08T21:38:11;100325.59;;;13.65;100.00
12360;BME280;6244;51.460;7.090;2023-08-08T21:43:08;100320.63;;;13.61;100.00
12360;BME280;6244;51.460;7.090;2023-08-08T21:48:04;100308.84;;;13.54;100.00
12360;BME280;6244;51.460;7.090;2023-08-08T21:53:03;100302.50;;;13.56;100.00
12360;BME280;6244;51.460;7.090;2023-08-08T21:57:59;100286.34;;;13.61;100.00
12360;BME280;6244;51.460;7.090;2023-08-08T22:02:56;100273.28;;;13.59;100.00
12360;BME280;6244;51.460;7.090;2023-08-08T22:07:52;100276.34;;;13.66;100.00
12360;BME280;6244;51.460;7.090;2023-08-08T22:12:55;100274.97;;;13.60;100.00
12360;BME280;6244;51.460;7.090;2023-08-08T22:17:52;100274.44;;;13.68;100.00
12360;BME280;6244;51.460;7.090;2023-08-08T22:22:48;100265.59;;;13.69;100.00
12360;BME280;6244;51.460;7.090;2023-08-08T22:27:45;100261.47;;;13.65;100.00
12360;BME280;6244;51.460;7.090;2023-08-08T22:32:43;100266.19;;;13.72;100.00
12360;BME280;6244;51.460;7.090;2023-08-08T22:37:40;100263.69;;;13.71;100.00
12360;BME280;6244;51.460;7.090;2023-08-08T22:42:36;100255.25;;;13.66;100.00
12360;BME280;6244;51.460;7.090;2023-08-08T22:47:33;100246.16;;;13.70;100.00
12360;BME280;6244;51.460;7.090;2023-08-08T22:52:31;100243.53;;;13.70;100.00
12360;BME280;6244;51.460;7.090;2023-08-08T22:57:28;100233.94;;;13.69;100.00
12360;BME280;6244;51.460;7.090;2023-08-08T23:02:24;100241.75;;;13.70;100.00
12360;BME280;6244;51.460;7.090;2023-08-08T23:07:21;100241.75;;;13.70;100.00
12360;BME280;6244;51.460;7.090;2023-08-08T23:12:19;100226.88;;;13.69;100.00
12360;BME280;6244;51.460;7.090;2023-08-08T23:17:15;100229.41;;;13.71;100.00
12360;BME280;6244;51.460;7.090;2023-08-08T23:22:12;100219.56;;;13.73;100.00
12360;BME280;6244;51.460;7.090;2023-08-08T23:27:09;100227.50;;;13.73;100.00
12360;BME280;6244;51.460;7.090;2023-08-08T23:32:07;100219.91;;;13.68;100.00
12360;BME280;6244;51.460;7.090;2023-08-08T23:37:05;100226.75;;;13.71;100.00
12360;BME280;6244;51.460;7.090;2023-08-08T23:42:03;100225.28;;;13.79;100.00
12360;BME280;6244;51.460;7.090;2023-08-08T23:47:00;100219.69;;;13.71;100.00
12360;BME280;6244;51.460;7.090;2023-08-08T23:51:57;100221.69;;;13.80;100.00
12360;BME280;6244;51.460;7.090;2023-08-08T23:56:54;100234.13;;;13.78;100.00
